MDSD/SDQ METAR and TAF weather

Enter ICAO airport designator
Station Type Date Time Source
MDSD METAR 2022/01/25 04:00 UTC NOAA

MDSD 250400Z 05005KT 9999 FEW016 22/21 Q1015


Station Type Date Time Source
MDSD Decoded METAR 2022/01/25 04:00 UTC NOAA

Las Americas, Dominican Republic (MDSD) 18-26N 069-40W
Jan 24, 2022 - 11:00 PM EST / 2022.01.25 0400 UTC
Wind: from the NE (050 degrees) at 6 MPH (5 KT):0
Visibility: greater than 7 mile(s):0
Sky conditions: mostly clear
Temperature: 71 F (22 C)
Dew Point: 69 F (21 C)
Relative Humidity: 94%
Pressure (altimeter): 29.97 in. Hg (1015 hPa)
ob: MDSD 250400Z 05005KT 9999 FEW016 22/21 Q1015
cycle: 4

Station Type Date Time Source
MDSD TAF 2022/01/25 06:03 UTC NOAA

TAF MDSD 250400Z 2506/2606 05008KT 9999 FEW016
BECMG 2516/2518 16010KT

Example: see airport list